sensor_id;sensor_type;location;lat;lon;timestamp;temperature;humidity
7622;DHT22;3852;52.284;8.032;2022-09-09T00:02:21;15.30;99.90
7622;DHT22;3852;52.284;8.032;2022-09-09T00:04:58;15.40;99.90
7622;DHT22;3852;52.284;8.032;2022-09-09T00:07:50;15.40;99.90
7622;DHT22;3852;52.284;8.032;2022-09-09T00:15:52;15.60;99.90
7622;DHT22;3852;52.284;8.032;2022-09-09T00:22:00;15.60;99.90
7622;DHT22;3852;52.284;8.032;2022-09-09T00:24:46;15.60;99.90
7622;DHT22;3852;52.284;8.032;2022-09-09T00:27:47;15.70;99.90
7622;DHT22;3852;52.284;8.032;2022-09-09T00:33:10;15.80;99.90
7622;DHT22;3852;52.284;8.032;2022-09-09T00:35:44;15.80;99.90
7622;DHT22;3852;52.284;8.032;2022-09-09T00:38:19;15.90;99.90
7622;DHT22;3852;52.284;8.032;2022-09-09T00:40:50;15.90;99.90
7622;DHT22;3852;52.284;8.032;2022-09-09T00:46:33;15.90;99.90
7622;DHT22;3852;52.284;8.032;2022-09-09T00:52:26;15.80;99.90
7622;DHT22;3852;52.284;8.032;2022-09-09T00:55:21;15.80;99.90
7622;DHT22;3852;52.284;8.032;2022-09-09T00:58:10;15.80;99.90
7622;DHT22;3852;52.284;8.032;2022-09-09T01:03:39;15.70;99.90
7622;DHT22;3852;52.284;8.032;2022-09-09T01:09:12;15.70;99.90
7622;DHT22;3852;52.284;8.032;2022-09-09T01:17:16;15.90;99.90
7622;DHT22;3852;52.284;8.032;2022-09-09T01:19:54;15.90;99.90
7622;DHT22;3852;52.284;8.032;2022-09-09T01:25:11;15.90;99.90
7622;DHT22;3852;52.284;8.032;2022-09-09T01:28:08;15.90;99.90
7622;DHT22;3852;52.284;8.032;2022-09-09T01:30:39;15.90;99.90
7622;DHT22;3852;52.284;8.032;2022-09-09T01:33:13;15.90;99.90
7622;DHT22;3852;52.284;8.032;2022-09-09T01:35:48;15.90;99.90
7622;DHT22;3852;52.284;8.032;2022-09-09T01:38:21;15.90;99.90
7622;DHT22;3852;52.284;8.032;2022-09-09T01:40:47;15.90;99.90
7622;DHT22;3852;52.284;8.032;2022-09-09T01:43:13;15.90;99.90
7622;DHT22;3852;52.284;8.032;2022-09-09T01:45:40;15.90;99.90
7622;DHT22;3852;52.284;8.032;2022-09-09T01:48:08;15.80;99.90
7622;DHT22;3852;52.284;8.032;2022-09-09T01:50:34;15.80;99.90
7622;DHT22;3852;52.284;8.032;2022-09-09T01:53:01;15.80;99.90
7622;DHT22;3852;52.284;8.032;2022-09-09T01:55:43;15.80;99.90
7622;DHT22;3852;52.284;8.032;2022-09-09T01:58:31;15.80;99.90
7622;DHT22;3852;52.284;8.032;2022-09-09T02:01:21;15.80;99.90
7622;DHT22;3852;52.284;8.032;2022-09-09T02:03:56;15.80;99.90
7622;DHT22;3852;52.284;8.032;2022-09-09T02:06:36;15.80;99.90
7622;DHT22;3852;52.284;8.032;2022-09-09T02:09:05;15.80;99.90
7622;DHT22;3852;52.284;8.032;2022-09-09T02:11:33;15.80;99.90
7622;DHT22;3852;52.284;8.032;2022-09-09T02:14:10;15.80;99.90
7622;DHT22;3852;52.284;8.032;2022-09-09T02:16:45;15.80;99.90
7622;DHT22;3852;52.284;8.032;2022-09-09T02:22:04;15.90;99.90
7622;DHT22;3852;52.284;8.032;2022-09-09T02:24:34;15.80;99.90
7622;DHT22;3852;52.284;8.032;2022-09-09T02:27:04;15.90;99.90
7622;DHT22;3852;52.284;8.032;2022-09-09T02:29:40;15.90;99.90
7622;DHT22;3852;52.284;8.032;2022-09-09T02:32:11;15.90;99.90
7622;DHT22;3852;52.284;8.032;2022-09-09T02:34:43;15.80;99.90
7622;DHT22;3852;52.284;8.032;2022-09-09T02:37:12;15.80;99.90
7622;DHT22;3852;52.284;8.032;2022-09-09T02:39:38;16.00;99.90
7622;DHT22;3852;52.284;8.032;2022-09-09T02:42:05;16.00;99.90
7622;DHT22;3852;52.284;8.032;2022-09-09T02:44:31;15.90;99.90
7622;DHT22;3852;52.284;8.032;2022-09-09T02:50:33;15.80;99.90
7622;DHT22;3852;52.284;8.032;2022-09-09T02:53:41;15.80;99.90
7622;DHT22;3852;52.284;8.032;2022-09-09T02:56:19;15.90;99.90
7622;DHT22;3852;52.284;8.032;2022-09-09T02:58:47;15.90;99.90
7622;DHT22;3852;52.284;8.032;2022-09-09T03:01:13;15.80;99.90
7622;DHT22;3852;52.284;8.032;2022-09-09T03:03:42;15.80;99.90
7622;DHT22;3852;52.284;8.032;2022-09-09T03:06:10;15.90;99.90
7622;DHT22;3852;52.284;8.032;2022-09-09T03:08:37;15.90;99.90
7622;DHT22;3852;52.284;8.032;2022-09-09T03:11:03;15.90;99.90
7622;DHT22;3852;52.284;8.032;2022-09-09T03:13:29;16.00;99.90
7622;DHT22;3852;52.284;8.032;2022-09-09T03:15:55;15.90;99.90
7622;DHT22;3852;52.284;8.032;2022-09-09T03:18:21;15.90;99.90
7622;DHT22;3852;52.284;8.032;2022-09-09T03:20:47;15.80;99.90
7622;DHT22;3852;52.284;8.032;2022-09-09T03:23:17;15.80;99.90
7622;DHT22;3852;52.284;8.032;2022-09-09T03:25:51;15.90;99.90
7622;DHT22;3852;52.284;8.032;2022-09-09T03:28:18;15.80;99.90
7622;DHT22;3852;52.284;8.032;2022-09-09T03:30:44;15.80;99.90
7622;DHT22;3852;52.284;8.032;2022-09-09T03:33:09;15.70;99.90
7622;DHT22;3852;52.284;8.032;2022-09-09T03:35:38;15.70;99.90
7622;DHT22;3852;52.284;8.032;2022-09-09T03:38:04;15.70;99.90
7622;DHT22;3852;52.284;8.032;2022-09-09T03:40:30;15.60;99.90
7622;DHT22;3852;52.284;8.032;2022-09-09T03:42:56;15.60;99.90
7622;DHT22;3852;52.284;8.032;2022-09-09T03:45:22;15.60;99.90
7622;DHT22;3852;52.284;8.032;2022-09-09T03:47:48;15.60;99.90
7622;DHT22;3852;52.284;8.032;2022-09-09T03:50:14;15.60;99.90
7622;DHT22;3852;52.284;8.032;2022-09-09T03:52:41;15.70;99.90
7622;DHT22;3852;52.284;8.032;2022-09-09T03:55:08;15.70;99.90
7622;DHT22;3852;52.284;8.032;2022-09-09T03:57:34;15.80;99.90
7622;DHT22;3852;52.284;8.032;2022-09-09T04:00:05;15.80;99.90
7622;DHT22;3852;52.284;8.032;2022-09-09T04:02:32;15.80;99.90
7622;DHT22;3852;52.284;8.032;2022-09-09T04:04:58;15.80;99.90
7622;DHT22;3852;52.284;8.032;2022-09-09T04:07:25;15.80;99.90
7622;DHT22;3852;52.284;8.032;2022-09-09T04:09:52;15.80;99.90
7622;DHT22;3852;52.284;8.032;2022-09-09T04:12:19;15.80;99.90
7622;DHT22;3852;52.284;8.032;2022-09-09T04:14:46;15.80;99.90
7622;DHT22;3852;52.284;8.032;2022-09-09T04:17:15;15.70;99.90
7622;DHT22;3852;52.284;8.032;2022-09-09T04:19:41;15.90;99.90
7622;DHT22;3852;52.284;8.032;2022-09-09T04:22:07;15.90;99.90
7622;DHT22;3852;52.284;8.032;2022-09-09T04:24:33;15.80;99.90
7622;DHT22;3852;52.284;8.032;2022-09-09T04:27:00;15.80;99.90
7622;DHT22;3852;52.284;8.032;2022-09-09T04:29:26;15.90;99.90
7622;DHT22;3852;52.284;8.032;2022-09-09T04:31:51;15.80;99.90
7622;DHT22;3852;52.284;8.032;2022-09-09T04:34:18;15.80;99.90
7622;DHT22;3852;52.284;8.032;2022-09-09T04:36:44;16.00;99.90
7622;DHT22;3852;52.284;8.032;2022-09-09T04:39:10;16.00;99.90
7622;DHT22;3852;52.284;8.032;2022-09-09T04:41:35;16.00;99.90
7622;DHT22;3852;52.284;8.032;2022-09-09T04:44:01;16.00;99.90
7622;DHT22;3852;52.284;8.032;2022-09-09T04:46:29;15.90;99.90
7622;DHT22;3852;52.284;8.032;2022-09-09T04:48:54;15.90;99.90
7622;DHT22;3852;52.284;8.032;2022-09-09T04:51:20;15.90;99.90
7622;DHT22;3852;52.284;8.032;2022-09-09T04:53:46;15.80;99.90
7622;DHT22;3852;52.284;8.032;2022-09-09T04:56:15;15.80;99.90
7622;DHT22;3852;52.284;8.032;2022-09-09T04:58:42;15.80;99.90
7622;DHT22;3852;52.284;8.032;2022-09-09T05:01:17;15.90;99.90
7622;DHT22;3852;52.284;8.032;2022-09-09T05:03:45;15.90;99.90
7622;DHT22;3852;52.284;8.032;2022-09-09T05:06:13;15.80;99.90
7622;DHT22;3852;52.284;8.032;2022-09-09T05:08:42;16.00;99.90
7622;DHT22;3852;52.284;8.032;2022-09-09T05:11:22;15.90;99.90
7622;DHT22;3852;52.284;8.032;2022-09-09T05:13:51;15.90;99.90
7622;DHT22;3852;52.284;8.032;2022-09-09T05:16:17;15.90;99.90
7622;DHT22;3852;52.284;8.032;2022-09-09T05:18:44;15.90;99.90
7622;DHT22;3852;52.284;8.032;2022-09-09T05:21:12;16.00;99.90
7622;DHT22;3852;52.284;8.032;2022-09-09T05:23:39;15.90;99.90
7622;DHT22;3852;52.284;8.032;2022-09-09T05:26:06;15.90;99.90
7622;DHT22;3852;52.284;8.032;2022-09-09T05:28:34;15.90;99.90
7622;DHT22;3852;52.284;8.032;2022-09-09T05:31:06;16.00;99.90
7622;DHT22;3852;52.284;8.032;2022-09-09T05:33:43;16.00;99.90
7622;DHT22;3852;52.284;8.032;2022-09-09T05:36:13;16.00;99.90
7622;DHT22;3852;52.284;8.032;2022-09-09T05:38:41;16.00;99.90
7622;DHT22;3852;52.284;8.032;2022-09-09T05:41:08;16.00;99.90
7622;DHT22;3852;52.284;8.032;2022-09-09T05:43:35;16.20;99.90
7622;DHT22;3852;52.284;8.032;2022-09-09T05:46:12;16.10;99.90
7622;DHT22;3852;52.284;8.032;2022-09-09T05:48:41;16.20;99.90
7622;DHT22;3852;52.284;8.032;2022-09-09T05:51:10;16.20;99.90
7622;DHT22;3852;52.284;8.032;2022-09-09T05:53:41;16.20;99.90
7622;DHT22;3852;52.284;8.032;2022-09-09T05:56:19;16.20;99.90
7622;DHT22;3852;52.284;8.032;2022-09-09T05:58:47;16.20;99.90
7622;DHT22;3852;52.284;8.032;2022-09-09T06:01:15;16.20;99.90
7622;DHT22;3852;52.284;8.032;2022-09-09T06:03:44;16.20;99.90
7622;DHT22;3852;52.284;8.032;2022-09-09T06:06:15;16.20;99.90
7622;DHT22;3852;52.284;8.032;2022-09-09T06:08:51;16.30;99.90
7622;DHT22;3852;52.284;8.032;2022-09-09T06:11:20;16.30;99.90
7622;DHT22;3852;52.284;8.032;2022-09-09T06:13:48;16.30;99.90
7622;DHT22;3852;52.284;8.032;2022-09-09T06:16:18;16.40;99.90
7622;DHT22;3852;52.284;8.032;2022-09-09T06:18:45;16.40;99.90
7622;DHT22;3852;52.284;8.032;2022-09-09T06:21:22;16.30;99.90
7622;DHT22;3852;52.284;8.032;2022-09-09T06:23:52;16.40;99.90
7622;DHT22;3852;52.284;8.032;2022-09-09T06:26:23;16.60;99.90
7622;DHT22;3852;52.284;8.032;2022-09-09T06:28:54;16.60;99.90
7622;DHT22;3852;52.284;8.032;2022-09-09T06:31:23;16.60;99.90
7622;DHT22;3852;52.284;8.032;2022-09-09T06:33:51;16.60;99.90
7622;DHT22;3852;52.284;8.032;2022-09-09T06:36:25;16.70;99.90
7622;DHT22;3852;52.284;8.032;2022-09-09T06:38:52;16.80;99.90
7622;DHT22;3852;52.284;8.032;2022-09-09T06:41:20;16.80;99.90
7622;DHT22;3852;52.284;8.032;2022-09-09T06:43:49;16.80;99.90
7622;DHT22;3852;52.284;8.032;2022-09-09T06:46:26;16.80;99.90
7622;DHT22;3852;52.284;8.032;2022-09-09T06:48:57;16.80;99.90
7622;DHT22;3852;52.284;8.032;2022-09-09T06:51:30;16.90;99.90
7622;DHT22;3852;52.284;8.032;2022-09-09T06:53:58;16.80;99.90
7622;DHT22;3852;52.284;8.032;2022-09-09T06:58:55;16.80;99.90
7622;DHT22;3852;52.284;8.032;2022-09-09T07:01:26;16.80;99.90
7622;DHT22;3852;52.284;8.032;2022-09-09T07:03:56;16.90;99.90
7622;DHT22;3852;52.284;8.032;2022-09-09T07:06:29;16.80;99.90
7622;DHT22;3852;52.284;8.032;2022-09-09T07:08:59;16.80;99.90
7622;DHT22;3852;52.284;8.032;2022-09-09T07:11:29;16.80;99.90
7622;DHT22;3852;52.284;8.032;2022-09-09T07:13:57;16.80;99.90
7622;DHT22;3852;52.284;8.032;2022-09-09T07:16:24;16.90;99.90
7622;DHT22;3852;52.284;8.032;2022-09-09T07:18:52;16.80;99.90
7622;DHT22;3852;52.284;8.032;2022-09-09T07:21:18;16.90;99.90
7622;DHT22;3852;52.284;8.032;2022-09-09T07:23:44;16.90;99.90
7622;DHT22;3852;52.284;8.032;2022-09-09T07:26:11;16.90;99.90
7622;DHT22;3852;52.284;8.032;2022-09-09T07:28:39;17.00;99.90
7622;DHT22;3852;52.284;8.032;2022-09-09T07:31:06;17.00;99.90
7622;DHT22;3852;52.284;8.032;2022-09-09T07:33:34;16.90;99.90
7622;DHT22;3852;52.284;8.032;2022-09-09T07:36:04;16.90;99.90
7622;DHT22;3852;52.284;8.032;2022-09-09T07:38:56;16.90;99.90
7622;DHT22;3852;52.284;8.032;2022-09-09T07:41:38;17.10;99.90
7622;DHT22;3852;52.284;8.032;2022-09-09T07:44:08;17.20;99.90
7622;DHT22;3852;52.284;8.032;2022-09-09T07:46:36;17.20;99.90
7622;DHT22;3852;52.284;8.032;2022-09-09T07:49:05;17.30;99.90
7622;DHT22;3852;52.284;8.032;2022-09-09T07:51:34;17.50;99.90
7622;DHT22;3852;52.284;8.032;2022-09-09T07:54:04;17.40;99.90
7622;DHT22;3852;52.284;8.032;2022-09-09T07:56:32;17.50;99.90
7622;DHT22;3852;52.284;8.032;2022-09-09T07:58:59;17.60;99.90
7622;DHT22;3852;52.284;8.032;2022-09-09T08:01:31;17.60;99.90
7622;DHT22;3852;52.284;8.032;2022-09-09T08:04:04;17.60;99.90
7622;DHT22;3852;52.284;8.032;2022-09-09T08:06:35;17.60;99.90
7622;DHT22;3852;52.284;8.032;2022-09-09T08:09:03;17.70;99.90
7622;DHT22;3852;52.284;8.032;2022-09-09T08:11:30;17.70;99.90
7622;DHT22;3852;52.284;8.032;2022-09-09T08:13:56;17.90;99.90
7622;DHT22;3852;52.284;8.032;2022-09-09T08:16:25;17.90;99.90
7622;DHT22;3852;52.284;8.032;2022-09-09T08:18:52;18.00;99.90
7622;DHT22;3852;52.284;8.032;2022-09-09T08:21:21;18.00;99.90
7622;DHT22;3852;52.284;8.032;2022-09-09T08:23:51;18.10;99.90
7622;DHT22;3852;52.284;8.032;2022-09-09T08:26:20;18.20;99.90
7622;DHT22;3852;52.284;8.032;2022-09-09T08:28:51;18.10;99.90
7622;DHT22;3852;52.284;8.032;2022-09-09T08:31:21;18.10;99.90
7622;DHT22;3852;52.284;8.032;2022-09-09T08:33:49;18.10;99.90
7622;DHT22;3852;52.284;8.032;2022-09-09T08:36:18;18.20;99.90
7622;DHT22;3852;52.284;8.032;2022-09-09T08:38:52;18.30;99.90
7622;DHT22;3852;52.284;8.032;2022-09-09T08:50:19;18.70;99.90
7622;DHT22;3852;52.284;8.032;2022-09-09T08:58:29;18.80;99.90
7622;DHT22;3852;52.284;8.032;2022-09-09T09:06:44;19.00;99.90
7622;DHT22;3852;52.284;8.032;2022-09-09T09:09:18;19.00;99.90
7622;DHT22;3852;52.284;8.032;2022-09-09T09:11:54;19.00;99.90
7622;DHT22;3852;52.284;8.032;2022-09-09T09:14:29;19.00;99.90
7622;DHT22;3852;52.284;8.032;2022-09-09T09:17:19;19.10;99.90
7622;DHT22;3852;52.284;8.032;2022-09-09T09:19:47;19.10;99.90
7622;DHT22;3852;52.284;8.032;2022-09-09T09:27:58;18.90;99.90
7622;DHT22;3852;52.284;8.032;2022-09-09T09:30:42;19.00;99.90
7622;DHT22;3852;52.284;8.032;2022-09-09T09:33:33;19.10;99.90
7622;DHT22;3852;52.284;8.032;2022-09-09T09:36:12;19.20;99.90
7622;DHT22;3852;52.284;8.032;2022-09-09T09:38:55;19.30;99.90
7622;DHT22;3852;52.284;8.032;2022-09-09T09:44:29;19.20;99.90
7622;DHT22;3852;52.284;8.032;2022-09-09T09:47:14;19.20;99.90
7622;DHT22;3852;52.284;8.032;2022-09-09T09:50:00;19.30;99.90
7622;DHT22;3852;52.284;8.032;2022-09-09T09:52:30;19.50;99.90
7622;DHT22;3852;52.284;8.032;2022-09-09T09:54:58;19.80;99.90
7622;DHT22;3852;52.284;8.032;2022-09-09T09:57:30;20.00;99.90
7622;DHT22;3852;52.284;8.032;2022-09-09T10:00:04;19.80;99.90
7622;DHT22;3852;52.284;8.032;2022-09-09T10:02:41;19.80;99.90
7622;DHT22;3852;52.284;8.032;2022-09-09T10:05:20;19.80;99.90
7622;DHT22;3852;52.284;8.032;2022-09-09T10:08:04;19.80;99.90
7622;DHT22;3852;52.284;8.032;2022-09-09T10:10:50;19.70;99.90
7622;DHT22;3852;52.284;8.032;2022-09-09T10:19:13;19.90;99.90
7622;DHT22;3852;52.284;8.032;2022-09-09T10:21:56;19.80;99.90
7622;DHT22;3852;52.284;8.032;2022-09-09T10:28:00;19.80;99.90
7622;DHT22;3852;52.284;8.032;2022-09-09T10:37:26;19.90;99.90
7622;DHT22;3852;52.284;8.032;2022-09-09T10:40:18;20.10;99.90
7622;DHT22;3852;52.284;8.032;2022-09-09T10:42:52;20.50;99.90
7622;DHT22;3852;52.284;8.032;2022-09-09T10:45:32;20.60;99.90
7622;DHT22;3852;52.284;8.032;2022-09-09T10:50:53;20.80;99.90
7622;DHT22;3852;52.284;8.032;2022-09-09T10:53:28;20.60;99.90
7622;DHT22;3852;52.284;8.032;2022-09-09T10:56:10;20.50;99.90
7622;DHT22;3852;52.284;8.032;2022-09-09T10:58:48;20.40;99.90
7622;DHT22;3852;52.284;8.032;2022-09-09T11:01:36;20.20;99.90
7622;DHT22;3852;52.284;8.032;2022-09-09T11:07:02;20.00;99.90
7622;DHT22;3852;52.284;8.032;2022-09-09T11:09:35;20.00;99.90
7622;DHT22;3852;52.284;8.032;2022-09-09T11:12:03;19.90;99.90
7622;DHT22;3852;52.284;8.032;2022-09-09T11:14:48;19.80;99.90
7622;DHT22;3852;52.284;8.032;2022-09-09T11:17:19;19.80;99.90
7622;DHT22;3852;52.284;8.032;2022-09-09T11:19:47;20.10;99.90
7622;DHT22;3852;52.284;8.032;2022-09-09T11:22:39;20.50;99.90
7622;DHT22;3852;52.284;8.032;2022-09-09T11:30:49;21.30;99.90
7622;DHT22;3852;52.284;8.032;2022-09-09T11:36:56;21.50;99.90
7622;DHT22;3852;52.284;8.032;2022-09-09T11:42:25;21.40;99.90
7622;DHT22;3852;52.284;8.032;2022-09-09T11:44:51;21.20;99.90
7622;DHT22;3852;52.284;8.032;2022-09-09T11:47:28;21.40;99.90
7622;DHT22;3852;52.284;8.032;2022-09-09T11:52:42;21.90;99.90
7622;DHT22;3852;52.284;8.032;2022-09-09T11:55:26;21.80;99.90
7622;DHT22;3852;52.284;8.032;2022-09-09T11:58:02;21.40;99.90
7622;DHT22;3852;52.284;8.032;2022-09-09T12:00:38;21.10;99.90
7622;DHT22;3852;52.284;8.032;2022-09-09T12:03:33;20.90;99.90
7622;DHT22;3852;52.284;8.032;2022-09-09T12:06:31;20.80;99.90
7622;DHT22;3852;52.284;8.032;2022-09-09T12:14:43;20.60;99.90
7622;DHT22;3852;52.284;8.032;2022-09-09T12:17:25;20.50;99.90
7622;DHT22;3852;52.284;8.032;2022-09-09T12:28:49;20.60;99.90
7622;DHT22;3852;52.284;8.032;2022-09-09T12:36:45;20.60;99.90
7622;DHT22;3852;52.284;8.032;2022-09-09T12:39:27;20.50;99.90
7622;DHT22;3852;52.284;8.032;2022-09-09T12:41:56;20.60;99.90
7622;DHT22;3852;52.284;8.032;2022-09-09T12:44:24;20.70;99.90
7622;DHT22;3852;52.284;8.032;2022-09-09T12:46:51;20.70;99.90
7622;DHT22;3852;52.284;8.032;2022-09-09T12:49:37;20.80;99.90
7622;DHT22;3852;52.284;8.032;2022-09-09T12:52:13;20.80;99.90
7622;DHT22;3852;52.284;8.032;2022-09-09T12:54:47;20.90;99.90
7622;DHT22;3852;52.284;8.032;2022-09-09T12:57:14;20.80;99.90
7622;DHT22;3852;52.284;8.032;2022-09-09T12:59:42;21.00;99.90
7622;DHT22;3852;52.284;8.032;2022-09-09T13:02:22;21.30;99.90
7622;DHT22;3852;52.284;8.032;2022-09-09T13:04:52;21.70;99.90
7622;DHT22;3852;52.284;8.032;2022-09-09T13:07:20;21.80;99.90
7622;DHT22;3852;52.284;8.032;2022-09-09T13:09:48;22.00;99.90
7622;DHT22;3852;52.284;8.032;2022-09-09T13:12:17;22.10;99.90
7622;DHT22;3852;52.284;8.032;2022-09-09T13:14:47;22.10;99.90
7622;DHT22;3852;52.284;8.032;2022-09-09T13:17:24;22.20;99.90
7622;DHT22;3852;52.284;8.032;2022-09-09T13:19:52;22.40;99.90
7622;DHT22;3852;52.284;8.032;2022-09-09T13:22:34;22.40;99.90
7622;DHT22;3852;52.284;8.032;2022-09-09T13:30:27;22.10;99.90
7622;DHT22;3852;52.284;8.032;2022-09-09T13:33:18;22.20;99.90
7622;DHT22;3852;52.284;8.032;2022-09-09T13:35:56;22.20;99.90
7622;DHT22;3852;52.284;8.032;2022-09-09T13:38:24;22.10;99.90
7622;DHT22;3852;52.284;8.032;2022-09-09T13:41:02;22.00;99.90
7622;DHT22;3852;52.284;8.032;2022-09-09T13:43:34;21.80;99.90
7622;DHT22;3852;52.284;8.032;2022-09-09T13:46:04;21.90;99.90
7622;DHT22;3852;52.284;8.032;2022-09-09T13:49:02;21.90;99.90
7622;DHT22;3852;52.284;8.032;2022-09-09T13:54:06;22.00;99.90
7622;DHT22;3852;52.284;8.032;2022-09-09T13:56:35;22.00;99.90
7622;DHT22;3852;52.284;8.032;2022-09-09T13:59:03;22.00;99.90
7622;DHT22;3852;52.284;8.032;2022-09-09T14:01:31;22.20;99.90
7622;DHT22;3852;52.284;8.032;2022-09-09T14:03:57;22.30;99.90
7622;DHT22;3852;52.284;8.032;2022-09-09T14:06:24;22.50;99.90
7622;DHT22;3852;52.284;8.032;2022-09-09T14:08:50;22.50;99.90
7622;DHT22;3852;52.284;8.032;2022-09-09T14:11:18;22.40;99.90
7622;DHT22;3852;52.284;8.032;2022-09-09T14:13:44;22.00;99.90
7622;DHT22;3852;52.284;8.032;2022-09-09T14:16:10;21.80;99.90
7622;DHT22;3852;52.284;8.032;2022-09-09T14:18:36;21.80;99.90
7622;DHT22;3852;52.284;8.032;2022-09-09T14:21:03;21.80;99.90
7622;DHT22;3852;52.284;8.032;2022-09-09T14:23:29;21.80;99.90
7622;DHT22;3852;52.284;8.032;2022-09-09T14:25:55;21.80;99.90
7622;DHT22;3852;52.284;8.032;2022-09-09T14:28:21;21.70;99.90
7622;DHT22;3852;52.284;8.032;2022-09-09T14:30:47;21.60;99.90
7622;DHT22;3852;52.284;8.032;2022-09-09T14:33:15;21.60;99.90
7622;DHT22;3852;52.284;8.032;2022-09-09T14:35:42;21.50;99.90
7622;DHT22;3852;52.284;8.032;2022-09-09T14:38:08;21.20;99.90
7622;DHT22;3852;52.284;8.032;2022-09-09T14:40:36;20.70;99.90
7622;DHT22;3852;52.284;8.032;2022-09-09T14:43:02;20.20;99.90
7622;DHT22;3852;52.284;8.032;2022-09-09T14:45:29;19.50;99.90
7622;DHT22;3852;52.284;8.032;2022-09-09T14:47:54;19.00;99.90
7622;DHT22;3852;52.284;8.032;2022-09-09T14:50:21;18.50;99.90
7622;DHT22;3852;52.284;8.032;2022-09-09T14:52:48;18.30;99.90
7622;DHT22;3852;52.284;8.032;2022-09-09T14:55:14;18.10;99.90
7622;DHT22;3852;52.284;8.032;2022-09-09T14:57:41;17.90;99.90
7622;DHT22;3852;52.284;8.032;2022-09-09T15:00:09;17.80;99.90
7622;DHT22;3852;52.284;8.032;2022-09-09T15:02:35;17.80;99.90
7622;DHT22;3852;52.284;8.032;2022-09-09T15:05:01;17.90;99.90
7622;DHT22;3852;52.284;8.032;2022-09-09T15:07:28;18.10;99.90
7622;DHT22;3852;52.284;8.032;2022-09-09T15:09:54;18.10;99.90
7622;DHT22;3852;52.284;8.032;2022-09-09T15:12:20;18.20;99.90
7622;DHT22;3852;52.284;8.032;2022-09-09T15:14:47;18.20;99.90
7622;DHT22;3852;52.284;8.032;2022-09-09T15:17:13;18.20;99.90
7622;DHT22;3852;52.284;8.032;2022-09-09T15:19:39;18.30;99.90
7622;DHT22;3852;52.284;8.032;2022-09-09T15:22:05;18.40;99.90
7622;DHT22;3852;52.284;8.032;2022-09-09T15:24:32;18.30;99.90
7622;DHT22;3852;52.284;8.032;2022-09-09T15:26:58;18.30;99.90
7622;DHT22;3852;52.284;8.032;2022-09-09T15:29:25;18.20;99.90
7622;DHT22;3852;52.284;8.032;2022-09-09T15:31:51;18.10;99.90
7622;DHT22;3852;52.284;8.032;2022-09-09T15:34:19;18.10;99.90
7622;DHT22;3852;52.284;8.032;2022-09-09T15:36:45;17.90;99.90
7622;DHT22;3852;52.284;8.032;2022-09-09T15:39:16;17.80;99.90
7622;DHT22;3852;52.284;8.032;2022-09-09T15:41:44;17.70;99.90
7622;DHT22;3852;52.284;8.032;2022-09-09T15:44:11;17.50;99.90
7622;DHT22;3852;52.284;8.032;2022-09-09T15:46:43;17.50;99.90
7622;DHT22;3852;52.284;8.032;2022-09-09T15:49:21;17.30;99.90
7622;DHT22;3852;52.284;8.032;2022-09-09T15:51:56;17.10;99.90
7622;DHT22;3852;52.284;8.032;2022-09-09T15:54:24;16.90;99.90
7622;DHT22;3852;52.284;8.032;2022-09-09T15:56:56;16.80;99.90
7622;DHT22;3852;52.284;8.032;2022-09-09T15:59:24;16.90;99.90
7622;DHT22;3852;52.284;8.032;2022-09-09T16:01:50;16.90;99.90
7622;DHT22;3852;52.284;8.032;2022-09-09T16:04:21;16.90;99.90
7622;DHT22;3852;52.284;8.032;2022-09-09T16:06:52;16.80;99.90
7622;DHT22;3852;52.284;8.032;2022-09-09T16:09:20;16.90;99.90
7622;DHT22;3852;52.284;8.032;2022-09-09T16:11:46;16.90;99.90
7622;DHT22;3852;52.284;8.032;2022-09-09T16:14:13;17.00;99.90
7622;DHT22;3852;52.284;8.032;2022-09-09T16:16:41;17.10;99.90
7622;DHT22;3852;52.284;8.032;2022-09-09T16:19:10;17.30;99.90
7622;DHT22;3852;52.284;8.032;2022-09-09T16:21:43;17.50;99.90
7622;DHT22;3852;52.284;8.032;2022-09-09T16:24:15;17.50;99.90
7622;DHT22;3852;52.284;8.032;2022-09-09T16:26:46;17.60;99.90
7622;DHT22;3852;52.284;8.032;2022-09-09T16:29:14;17.50;99.90
7622;DHT22;3852;52.284;8.032;2022-09-09T16:31:44;17.50;99.90
7622;DHT22;3852;52.284;8.032;2022-09-09T16:34:14;17.40;99.90
7622;DHT22;3852;52.284;8.032;2022-09-09T16:36:42;17.50;99.90
7622;DHT22;3852;52.284;8.032;2022-09-09T16:39:19;17.50;99.90
7622;DHT22;3852;52.284;8.032;2022-09-09T16:41:47;17.30;99.90
7622;DHT22;3852;52.284;8.032;2022-09-09T16:44:15;17.30;99.90
7622;DHT22;3852;52.284;8.032;2022-09-09T16:46:43;17.20;99.90
7622;DHT22;3852;52.284;8.032;2022-09-09T16:49:13;17.20;99.90
7622;DHT22;3852;52.284;8.032;2022-09-09T16:51:45;17.20;99.90
7622;DHT22;3852;52.284;8.032;2022-09-09T16:54:13;17.10;99.90
7622;DHT22;3852;52.284;8.032;2022-09-09T16:56:42;17.10;99.90
7622;DHT22;3852;52.284;8.032;2022-09-09T16:59:14;17.00;99.90
7622;DHT22;3852;52.284;8.032;2022-09-09T17:01:44;17.10;99.90
7622;DHT22;3852;52.284;8.032;2022-09-09T17:04:13;17.10;99.90
7622;DHT22;3852;52.284;8.032;2022-09-09T17:06:41;17.10;99.90
7622;DHT22;3852;52.284;8.032;2022-09-09T17:09:11;17.10;99.90
7622;DHT22;3852;52.284;8.032;2022-09-09T17:11:39;17.10;99.90
7622;DHT22;3852;52.284;8.032;2022-09-09T17:14:07;17.00;99.90
7622;DHT22;3852;52.284;8.032;2022-09-09T17:16:35;17.10;99.90
7622;DHT22;3852;52.284;8.032;2022-09-09T17:19:01;17.00;99.90
7622;DHT22;3852;52.284;8.032;2022-09-09T17:21:29;17.00;99.90
7622;DHT22;3852;52.284;8.032;2022-09-09T17:23:56;17.00;99.90
7622;DHT22;3852;52.284;8.032;2022-09-09T17:26:25;17.00;99.90
7622;DHT22;3852;52.284;8.032;2022-09-09T17:28:52;17.00;99.90
7622;DHT22;3852;52.284;8.032;2022-09-09T17:31:20;17.00;99.90
7622;DHT22;3852;52.284;8.032;2022-09-09T17:33:47;17.00;99.90
7622;DHT22;3852;52.284;8.032;2022-09-09T17:36:15;17.00;99.90
7622;DHT22;3852;52.284;8.032;2022-09-09T17:38:43;17.00;99.90
7622;DHT22;3852;52.284;8.032;2022-09-09T17:41:14;17.00;99.90
7622;DHT22;3852;52.284;8.032;2022-09-09T17:43:42;17.10;99.90
7622;DHT22;3852;52.284;8.032;2022-09-09T17:46:10;17.00;99.90
7622;DHT22;3852;52.284;8.032;2022-09-09T17:48:38;16.90;99.90
7622;DHT22;3852;52.284;8.032;2022-09-09T17:51:06;16.90;99.90
7622;DHT22;3852;52.284;8.032;2022-09-09T17:53:43;16.80;99.90
7622;DHT22;3852;52.284;8.032;2022-09-09T17:56:12;16.70;99.90
7622;DHT22;3852;52.284;8.032;2022-09-09T17:58:40;16.70;99.90
7622;DHT22;3852;52.284;8.032;2022-09-09T18:01:10;16.50;99.90
7622;DHT22;3852;52.284;8.032;2022-09-09T18:03:39;16.50;99.90
7622;DHT22;3852;52.284;8.032;2022-09-09T18:06:07;16.40;99.90
7622;DHT22;3852;52.284;8.032;2022-09-09T18:08:35;16.40;99.90
7622;DHT22;3852;52.284;8.032;2022-09-09T18:11:04;16.40;99.90
7622;DHT22;3852;52.284;8.032;2022-09-09T18:13:31;16.40;99.90
7622;DHT22;3852;52.284;8.032;2022-09-09T18:16:00;16.40;99.90
7622;DHT22;3852;52.284;8.032;2022-09-09T18:18:28;16.50;99.90
7622;DHT22;3852;52.284;8.032;2022-09-09T18:21:06;16.50;99.90
7622;DHT22;3852;52.284;8.032;2022-09-09T18:23:37;16.50;99.90
7622;DHT22;3852;52.284;8.032;2022-09-09T18:26:15;16.70;99.90
7622;DHT22;3852;52.284;8.032;2022-09-09T18:28:46;16.60;99.90
7622;DHT22;3852;52.284;8.032;2022-09-09T18:31:14;16.50;99.90
7622;DHT22;3852;52.284;8.032;2022-09-09T18:33:43;16.50;99.90
7622;DHT22;3852;52.284;8.032;2022-09-09T18:36:12;16.50;99.90
7622;DHT22;3852;52.284;8.032;2022-09-09T18:38:41;16.60;99.90
7622;DHT22;3852;52.284;8.032;2022-09-09T18:41:22;16.60;99.90
7622;DHT22;3852;52.284;8.032;2022-09-09T18:43:53;16.70;99.90